Time;durP1;ratioP1;P1;durP2;ratioP2;P2;SDS_P1;SDS_P2;PMS_P1;PMS_P2;Temp;Humidity;BMP_temperature;BMP_pressure;BME280_temperature;BME280_humidity;BME280_pressure;Samples;Min_cycle;Max_cycle;Signal;HPM_P1;HPM_P2
2023/03/08 00:01:29;;;;;;;;;;;;;;;;;;5017202;28;20388;-85
2023/03/08 00:04:15;;;;;;;;;;;;;;;;;;5014502;28;19917;-85
2023/03/08 00:07:02;;;;;;;;;;;;;;;;;;5014972;28;20348;-85
2023/03/08 00:09:48;;;;;;;;;;;;;;;;;;5013973;28;19923;-84
2023/03/08 00:12:35;;;;;;;;;;;;;;;;;;5014172;28;19926;-84
2023/03/08 00:15:21;;;;;;;;;;;;;;;;;;5010760;28;19923;-84
2023/03/08 00:18:08;;;;;;;;;;;;;;;;;;5010633;28;19925;-85
2023/03/08 00:20:54;;;;;;;;;;;;;;;;;;5014008;28;19917;-85
2023/03/08 00:23:40;;;;;;;;;;;;;;;;;;5017452;28;19920;-86
2023/03/08 00:26:27;;;;;;;;;;;;;;;;;;5018457;28;20265;-85
2023/03/08 00:29:13;;;;;;;;;;;;;;;;;;5016366;28;19924;-85
2023/03/08 00:32:00;;;;;;;;;;;;;;;;;;5014610;28;19921;-85
2023/03/08 00:34:46;;;;;;;;;;;;;;;;;;5011637;28;19948;-84
2023/03/08 00:37:33;;;;;;;;;;;;;;;;;;5007420;28;19917;-84
2023/03/08 00:40:19;;;;;;;;;;;;;;;;;;5012798;28;19920;-85
2023/03/08 00:43:06;;;;;;;;;;;;;;;;;;5015098;28;19917;-85
2023/03/08 00:45:52;;;;;;;;;;;;;;;;;;5009761;28;19927;-84
2023/03/08 00:48:39;;;;;;;;;;;;;;;;;;5013248;28;19921;-83
2023/03/08 00:51:25;;;;;;;;;;;;;;;;;;5018937;28;19917;-85
2023/03/08 00:54:12;;;;;;;;;;;;;;;;;;5018024;28;19931;-84
2023/03/08 00:56:58;;;;;;;;;;;;;;;;;;5016738;28;19923;-82
2023/03/08 00:59:45;;;;;;;;;;;;;;;;;;5018482;28;19913;-83
2023/03/08 01:02:31;;;;;;;;;;;;;;;;;;5016843;28;19918;-83
2023/03/08 01:05:18;;;;;;;;;;;;;;;;;;5017175;28;19921;-84
2023/03/08 01:08:04;;;;;;;;;;;;;;;;;;5019388;28;19936;-81
2023/03/08 01:10:50;;;;;;;;;;;;;;;;;;5003367;28;20026;-83
2023/03/08 01:13:37;;;;;;;;;;;;;;;;;;4989870;28;19936;-85
2023/03/08 01:16:23;;;;;;;;;;;;;;;;;;4984807;28;19918;-85
2023/03/08 01:19:10;;;;;;;;;;;;;;;;;;4993587;28;19993;-85
2023/03/08 01:21:57;;;;;;;;;;;;;;;;;;4997419;28;19917;-85
2023/03/08 01:24:44;;;;;;;;;;;;;;;;;;4990172;28;19933;-86
2023/03/08 01:27:30;;;;;;;;;;;;;;;;;;4998482;28;20651;-87
2023/03/08 01:30:17;;;;;;;;;;;;;;;;;;4999581;28;20622;-85
2023/03/08 01:33:03;;;;;;;;;;;;;;;;;;5004206;28;19932;-83
2023/03/08 01:35:50;;;;;;;;;;;;;;;;;;4994499;28;20281;-83
2023/03/08 01:38:36;;;;;;;;;;;;;;;;;;4989997;28;19921;-83
2023/03/08 01:41:23;;;;;;;;;;;;;;;;;;4990979;28;19944;-84
2023/03/08 01:44:09;;;;;;;;;;;;;;;;;;4995603;28;19921;-84
2023/03/08 01:46:55;;;;;;;;;;;;;;;;;;4989064;28;20497;-85
2023/03/08 01:49:42;;;;;;;;;;;;;;;;;;4996780;28;19921;-85
2023/03/08 01:52:28;;;;;;;;;;;;;;;;;;4997269;28;20583;-86
2023/03/08 01:55:15;;;;;;;;;;;;;;;;;;4991702;28;21295;-86
2023/03/08 01:58:01;;;;;;;;;;;;;;;;;;4999121;28;19936;-88
2023/03/08 02:00:48;;;;;;;;;;;;;;;;;;4997725;28;20400;-87
2023/03/08 02:03:34;;;;;;;;;;;;;;;;;;4989732;28;19914;-86
2023/03/08 02:06:21;;;;;;;;;;;;;;;;;;5003306;28;20460;-86
2023/03/08 02:09:07;;;;;;;;;;;;;;;;;;4995591;28;19917;-86
2023/03/08 02:11:54;;;;;;;;;;;;;;;;;;4993731;28;20132;-86
2023/03/08 02:14:40;;;;;;;;;;;;;;;;;;4995633;28;19921;-86
2023/03/08 02:17:27;;;;;;;;;;;;;;;;;;4999197;28;19917;-86
2023/03/08 02:20:13;;;;;;;;;;;;;;;;;;4992111;28;20385;-87
2023/03/08 02:22:59;;;;;;;;;;;;;;;;;;5001394;28;19921;-86
2023/03/08 02:25:46;;;;;;;;;;;;;;;;;;5003858;28;20332;-86
2023/03/08 02:28:32;;;;;;;;;;;;;;;;;;4992033;28;19918;-86
2023/03/08 02:31:19;;;;;;;;;;;;;;;;;;5000497;28;19917;-86
2023/03/08 02:34:05;;;;;;;;;;;;;;;;;;4993547;28;19955;-85
2023/03/08 02:36:52;;;;;;;;;;;;;;;;;;4992222;28;19918;-86
2023/03/08 02:39:38;;;;;;;;;;;;;;;;;;4995368;28;19928;-85
2023/03/08 02:42:25;;;;;;;;;;;;;;;;;;4994692;28;19920;-86
2023/03/08 02:45:11;;;;;;;;;;;;;;;;;;4999567;28;19925;-85
2023/03/08 02:47:58;;;;;;;;;;;;;;;;;;4999850;28;19926;-85
2023/03/08 02:50:44;;;;;;;;;;;;;;;;;;4989486;28;19925;-85
2023/03/08 02:53:31;;;;;;;;;;;;;;;;;;5005290;28;20291;-83
2023/03/08 02:56:17;;;;;;;;;;;;;;;;;;5001162;28;19921;-85
2023/03/08 02:59:04;;;;;;;;;;;;;;;;;;4996988;28;19926;-88
2023/03/08 03:01:50;;;;;;;;;;;;;;;;;;4998088;28;19951;-88
2023/03/08 03:04:36;;;;;;;;;;;;;;;;;;4994833;28;19921;-89
2023/03/08 03:07:23;;;;;;;;;;;;;;;;;;4999598;28;19948;-88
2023/03/08 03:10:09;;;;;;;;;;;;;;;;;;4999345;28;20373;-87
2023/03/08 03:12:56;;;;;;;;;;;;;;;;;;4994473;28;19926;-85
2023/03/08 03:15:42;;;;;;;;;;;;;;;;;;4994679;28;19933;-86
2023/03/08 03:18:29;;;;;;;;;;;;;;;;;;4997707;28;19927;-86
2023/03/08 03:21:15;;;;;;;;;;;;;;;;;;4992413;28;19917;-86
2023/03/08 03:24:02;;;;;;;;;;;;;;;;;;4989205;28;19922;-86
2023/03/08 03:26:48;;;;;;;;;;;;;;;;;;5001735;28;19937;-86
2023/03/08 03:29:35;;;;;;;;;;;;;;;;;;5003560;28;19918;-88
2023/03/08 03:32:21;;;;;;;;;;;;;;;;;;4992087;28;20301;-89
2023/03/08 03:35:08;;;;;;;;;;;;;;;;;;4996628;28;19917;-88
2023/03/08 03:37:54;;;;;;;;;;;;;;;;;;4997283;28;19988;-87
2023/03/08 03:40:41;;;;;;;;;;;;;;;;;;4989165;28;19925;-87
2023/03/08 03:43:27;;;;;;;;;;;;;;;;;;4998582;28;20383;-85
2023/03/08 03:46:14;;;;;;;;;;;;;;;;;;4985592;28;19918;-85
2023/03/08 03:49:00;;;;;;;;;;;;;;;;;;4995134;28;19918;-86
2023/03/08 03:51:47;;;;;;;;;;;;;;;;;;5003528;28;19921;-86
2023/03/08 03:54:33;;;;;;;;;;;;;;;;;;4998687;28;20459;-85
2023/03/08 03:57:20;;;;;;;;;;;;;;;;;;4998314;28;20372;-86
2023/03/08 04:00:06;;;;;;;;;;;;;;;;;;4992557;28;19932;-85
2023/03/08 04:02:52;;;;;;;;;;;;;;;;;;4992162;28;20590;-86
2023/03/08 04:05:39;;;;;;;;;;;;;;;;;;4999213;28;19928;-85
2023/03/08 04:08:25;;;;;;;;;;;;;;;;;;5002081;28;20591;-87
2023/03/08 04:11:12;;;;;;;;;;;;;;;;;;4995195;28;19926;-86
2023/03/08 04:13:58;;;;;;;;;;;;;;;;;;5000838;28;20397;-88
2023/03/08 04:16:45;;;;;;;;;;;;;;;;;;4990202;28;19914;-87
2023/03/08 04:19:31;;;;;;;;;;;;;;;;;;4997744;28;19928;-87
2023/03/08 04:22:18;;;;;;;;;;;;;;;;;;4997078;28;19921;-87
2023/03/08 04:25:06;;;;;;;;;;;;;;;;;;4990546;28;20420;-87
2023/03/08 04:27:53;;;;;;;;;;;;;;;;;;4997743;28;19917;-88
2023/03/08 04:30:39;;;;;;;;;;;;;;;;;;4986092;28;19921;-86
2023/03/08 04:33:26;;;;;;;;;;;;;;;;;;4995531;28;19929;-87
2023/03/08 04:36:12;;;;;;;;;;;;;;;;;;5002357;28;19924;-86
2023/03/08 04:38:59;;;;;;;;;;;;;;;;;;5004325;28;20288;-87
2023/03/08 04:41:45;;;;;;;;;;;;;;;;;;4987681;28;19936;-82
2023/03/08 04:44:32;;;;;;;;;;;;;;;;;;4988923;28;20494;-82
2023/03/08 04:47:18;;;;;;;;;;;;;;;;;;4989432;28;19917;-83
2023/03/08 04:50:05;;;;;;;;;;;;;;;;;;4991782;28;19914;-83
2023/03/08 04:52:51;;;;;;;;;;;;;;;;;;4989054;28;19937;-84
2023/03/08 04:55:38;;;;;;;;;;;;;;;;;;4996397;28;19963;-84
2023/03/08 04:58:24;;;;;;;;;;;;;;;;;;4995540;28;20782;-84
2023/03/08 05:01:11;;;;;;;;;;;;;;;;;;4990713;28;19914;-83
2023/03/08 05:03:57;;;;;;;;;;;;;;;;;;4990092;28;20293;-83
2023/03/08 05:06:43;;;;;;;;;;;;;;;;;;5001848;28;19925;-85
2023/03/08 05:09:30;;;;;;;;;;;;;;;;;;4996271;28;20324;-83
2023/03/08 05:12:16;;;;;;;;;;;;;;;;;;4993510;28;19921;-83
2023/03/08 05:15:03;;;;;;;;;;;;;;;;;;4996357;28;19929;-84
2023/03/08 05:17:49;;;;;;;;;;;;;;;;;;4993158;28;20817;-82
2023/03/08 05:20:36;;;;;;;;;;;;;;;;;;4991983;28;19925;-81
2023/03/08 05:23:22;;;;;;;;;;;;;;;;;;4987558;28;19921;-83
2023/03/08 05:26:09;;;;;;;;;;;;;;;;;;4987992;28;19941;-81
2023/03/08 05:28:55;;;;;;;;;;;;;;;;;;4992881;28;19914;-83
2023/03/08 05:31:44;;;;;;;;;;;;;;;;;;4983642;28;19921;-82
2023/03/08 05:34:30;;;;;;;;;;;;;;;;;;4987248;28;19936;-82
2023/03/08 05:37:17;;;;;;;;;;;;;;;;;;4989310;28;20776;-82
2023/03/08 05:40:05;;;;;;;;;;;;;;;;;;4996850;28;19928;-83
2023/03/08 05:42:51;;;;;;;;;;;;;;;;;;4999751;28;19925;-83
2023/03/08 05:45:38;;;;;;;;;;;;;;;;;;5003330;28;19913;-83
2023/03/08 05:48:24;;;;;;;;;;;;;;;;;;5000150;28;20704;-83
2023/03/08 05:51:11;;;;;;;;;;;;;;;;;;4999568;28;20672;-82
2023/03/08 05:53:57;;;;;;;;;;;;;;;;;;4991980;28;19928;-83
2023/03/08 05:56:44;;;;;;;;;;;;;;;;;;4999134;28;20336;-81
2023/03/08 05:59:30;;;;;;;;;;;;;;;;;;5016808;28;19931;-82
2023/03/08 06:02:17;;;;;;;;;;;;;;;;;;5019350;28;19928;-82
2023/03/08 06:05:04;;;;;;;;;;;;;;;;;;5010687;28;20329;-82
2023/03/08 06:07:50;;;;;;;;;;;;;;;;;;5015011;28;19918;-82
2023/03/08 06:10:36;;;;;;;;;;;;;;;;;;5021520;28;20297;-82
2023/03/08 06:13:23;;;;;;;;;;;;;;;;;;5016315;28;19929;-82
2023/03/08 06:16:09;;;;;;;;;;;;;;;;;;5007887;28;19921;-81
2023/03/08 06:18:56;;;;;;;;;;;;;;;;;;5019488;28;19917;-82
2023/03/08 06:21:43;;;;;;;;;;;;;;;;;;5008600;28;19922;-81
2023/03/08 06:24:29;;;;;;;;;;;;;;;;;;5015870;28;19917;-81
2023/03/08 06:27:16;;;;;;;;;;;;;;;;;;5018308;28;20288;-81
2023/03/08 06:30:03;;;;;;;;;;;;;;;;;;5012622;28;19924;-78
2023/03/08 06:32:49;;;;;;;;;;;;;;;;;;5016323;28;19940;-79
2023/03/08 06:35:36;;;;;;;;;;;;;;;;;;5010758;28;19929;-79
2023/03/08 06:38:22;;;;;;;;;;;;;;;;;;5016447;28;20464;-79
2023/03/08 06:41:08;;;;;;;;;;;;;;;;;;5011240;28;20440;-78
2023/03/08 06:43:55;;;;;;;;;;;;;;;;;;5015305;28;19921;-78
2023/03/08 06:46:42;;;;;;;;;;;;;;;;;;5012681;28;19929;-78
2023/03/08 06:49:29;;;;;;;;;;;;;;;;;;5019438;28;20471;-79
2023/03/08 06:52:15;;;;;;;;;;;;;;;;;;5009201;28;19917;-81
2023/03/08 06:55:02;;;;;;;;;;;;;;;;;;5017362;28;19937;-79
2023/03/08 06:57:49;;;;;;;;;;;;;;;;;;5017765;28;19929;-79
2023/03/08 07:00:35;;;;;;;;;;;;;;;;;;5018487;28;19921;-80
2023/03/08 07:03:22;;;;;;;;;;;;;;;;;;5015789;28;19933;-79
2023/03/08 07:06:08;;;;;;;;;;;;;;;;;;5015185;28;19920;-79
2023/03/08 07:08:55;;;;;;;;;;;;;;;;;;5016538;28;19922;-79
2023/03/08 07:11:42;;;;;;;;;;;;;;;;;;5011436;28;20292;-79
2023/03/08 07:14:28;;;;;;;;;;;;;;;;;;5020901;28;19937;-79
2023/03/08 07:17:15;;;;;;;;;;;;;;;;;;5013995;28;19928;-79
2023/03/08 07:20:04;;;;;;;;;;;;;;;;;;5008866;28;19928;-79
2023/03/08 07:22:50;;;;;;;;;;;;;;;;;;5013321;28;19922;-79
2023/03/08 07:25:37;;;;;;;;;;;;;;;;;;5010014;28;19925;-79
2023/03/08 07:28:23;;;;;;;;;;;;;;;;;;5016617;28;20399;-79
2023/03/08 07:31:10;;;;;;;;;;;;;;;;;;5014848;28;19928;-79
2023/03/08 07:33:57;;;;;;;;;;;;;;;;;;5018773;28;19936;-80
2023/03/08 07:36:43;;;;;;;;;;;;;;;;;;5013571;28;19953;-79
2023/03/08 07:39:30;;;;;;;;;;;;;;;;;;4992096;28;20671;-79
2023/03/08 07:42:16;;;;;;;;;;;;;;;;;;4997850;28;19932;-80
2023/03/08 07:45:03;;;;;;;;;;;;;;;;;;4992612;28;19918;-80
2023/03/08 07:47:51;;;;;;;;;;;;;;;;;;5013844;28;19921;-79
2023/03/08 07:50:37;;;;;;;;;;;;;;;;;;5015020;28;19944;-80
2023/03/08 07:53:24;;;;;;;;;;;;;;;;;;5006784;28;20296;-79
2023/03/08 07:56:10;;;;;;;;;;;;;;;;;;5016821;28;19925;-80
2023/03/08 07:58:57;;;;;;;;;;;;;;;;;;5015664;28;19932;-79
2023/03/08 08:01:43;;;;;;;;;;;;;;;;;;5020657;28;19932;-79
2023/03/08 08:04:30;;;;;;;;;;;;;;;;;;5013178;28;20285;-79
2023/03/08 08:07:16;;;;;;;;;;;;;;;;;;5015783;28;20384;-79
2023/03/08 08:10:03;;;;;;;;;;;;;;;;;;5015376;28;19918;-79
2023/03/08 08:12:49;;;;;;;;;;;;;;;;;;5011242;28;19926;-79
2023/03/08 08:15:36;;;;;;;;;;;;;;;;;;5014387;28;19944;-79
2023/03/08 08:18:22;;;;;;;;;;;;;;;;;;5013664;28;19921;-79
2023/03/08 08:21:09;;;;;;;;;;;;;;;;;;5013932;28;19933;-79
2023/03/08 08:23:56;;;;;;;;;;;;;;;;;;5011682;28;19932;-79
2023/03/08 08:26:43;;;;;;;;;;;;;;;;;;5011607;28;19939;-79
2023/03/08 08:29:29;;;;;;;;;;;;;;;;;;5014533;28;19921;-80
2023/03/08 08:32:16;;;;;;;;;;;;;;;;;;5017401;28;20371;-78
2023/03/08 08:35:03;;;;;;;;;;;;;;;;;;5014377;28;19929;-79
2023/03/08 08:37:50;;;;;;;;;;;;;;;;;;5010788;28;19952;-79
2023/03/08 08:40:36;;;;;;;;;;;;;;;;;;5010995;28;19921;-79
2023/03/08 08:43:23;;;;;;;;;;;;;;;;;;5010273;28;20289;-79
2023/03/08 08:46:09;;;;;;;;;;;;;;;;;;5009557;28;19921;-79
2023/03/08 08:48:56;;;;;;;;;;;;;;;;;;5008104;28;19953;-79
2023/03/08 08:51:42;;;;;;;;;;;;;;;;;;5015028;28;19927;-79
2023/03/08 08:54:29;;;;;;;;;;;;;;;;;;5013467;28;19935;-78
2023/03/08 08:57:15;;;;;;;;;;;;;;;;;;5009987;28;19928;-78
2023/03/08 09:00:04;;;;;;;;;;;;;;;;;;5014022;28;20696;-78
2023/03/08 09:02:51;;;;;;;;;;;;;;;;;;5015004;28;19927;-78
2023/03/08 09:05:37;;;;;;;;;;;;;;;;;;5011246;28;19921;-78
2023/03/08 09:08:24;;;;;;;;;;;;;;;;;;5009437;28;19921;-77
2023/03/08 09:11:10;;;;;;;;;;;;;;;;;;5016122;28;20274;-77
2023/03/08 09:13:57;;;;;;;;;;;;;;;;;;5012418;28;19929;-77
2023/03/08 09:16:43;;;;;;;;;;;;;;;;;;5010712;28;19917;-76
2023/03/08 09:19:30;;;;;;;;;;;;;;;;;;4999446;28;19921;-77
2023/03/08 09:22:17;;;;;;;;;;;;;;;;;;4986899;28;20705;-77
2023/03/08 09:25:03;;;;;;;;;;;;;;;;;;4990731;28;20345;-77
2023/03/08 09:27:50;;;;;;;;;;;;;;;;;;4994661;28;20444;-76
2023/03/08 09:30:36;;;;;;;;;;;;;;;;;;4988984;28;20375;-76
2023/03/08 09:33:23;;;;;;;;;;;;;;;;;;4986835;28;19921;-77
2023/03/08 09:36:09;;;;;;;;;;;;;;;;;;4992696;28;20431;-77
2023/03/08 09:38:56;;;;;;;;;;;;;;;;;;4994414;28;19921;-76
2023/03/08 09:41:43;;;;;;;;;;;;;;;;;;4989472;28;19922;-76
2023/03/08 09:44:29;;;;;;;;;;;;;;;;;;4997926;28;19929;-76
2023/03/08 09:47:16;;;;;;;;;;;;;;;;;;4990357;28;19940;-76
2023/03/08 09:50:02;;;;;;;;;;;;;;;;;;4993016;28;19929;-76
2023/03/08 09:52:49;;;;;;;;;;;;;;;;;;4990728;28;19921;-76
2023/03/08 09:55:36;;;;;;;;;;;;;;;;;;4988515;28;19929;-76
2023/03/08 09:58:23;;;;;;;;;;;;;;;;;;4992634;28;19933;-77
2023/03/08 10:01:09;;;;;;;;;;;;;;;;;;4988535;28;19929;-76
2023/03/08 10:03:56;;;;;;;;;;;;;;;;;;4990289;28;19925;-76
2023/03/08 10:06:42;;;;;;;;;;;;;;;;;;4992077;28;19937;-76
2023/03/08 10:09:29;;;;;;;;;;;;;;;;;;4994417;28;19918;-76
2023/03/08 10:12:16;;;;;;;;;;;;;;;;;;4989082;28;19929;-76
2023/03/08 10:15:02;;;;;;;;;;;;;;;;;;4991604;28;20384;-76
2023/03/08 10:17:51;;;;;;;;;;;;;;;;;;4990301;28;20321;-77
2023/03/08 10:20:37;;;;;;;;;;;;;;;;;;4995387;28;20433;-76
2023/03/08 10:23:26;;;;;;;;;;;;;;;;;;4998008;28;19917;-76
2023/03/08 10:26:13;;;;;;;;;;;;;;;;;;4998014;28;19924;-76
2023/03/08 10:28:59;;;;;;;;;;;;;;;;;;5003349;28;19921;-76
2023/03/08 10:31:47;;;;;;;;;;;;;;;;;;4998473;28;19921;-76
2023/03/08 10:34:34;;;;;;;;;;;;;;;;;;4995610;28;19929;-78
2023/03/08 10:37:21;;;;;;;;;;;;;;;;;;4989146;28;20680;-77
2023/03/08 10:40:08;;;;;;;;;;;;;;;;;;5002971;28;19917;-75
2023/03/08 10:42:56;;;;;;;;;;;;;;;;;;5001570;28;19926;-78
2023/03/08 10:45:43;;;;;;;;;;;;;;;;;;4992003;28;19922;-78
2023/03/08 10:48:29;;;;;;;;;;;;;;;;;;5002112;28;20328;-78
2023/03/08 10:51:16;;;;;;;;;;;;;;;;;;5002999;28;19922;-77
2023/03/08 10:54:02;;;;;;;;;;;;;;;;;;4995332;28;19939;-78
2023/03/08 10:56:49;;;;;;;;;;;;;;;;;;4996530;28;20039;-77
2023/03/08 10:59:36;;;;;;;;;;;;;;;;;;5000375;28;20396;-76
2023/03/08 11:02:23;;;;;;;;;;;;;;;;;;4994148;28;19925;-76
2023/03/08 11:05:09;;;;;;;;;;;;;;;;;;4991817;28;19918;-76
2023/03/08 11:07:56;;;;;;;;;;;;;;;;;;5004000;28;19925;-76
2023/03/08 11:10:42;;;;;;;;;;;;;;;;;;4996419;28;19917;-77
2023/03/08 11:13:30;;;;;;;;;;;;;;;;;;4991379;28;19929;-76
2023/03/08 11:16:16;;;;;;;;;;;;;;;;;;4992927;28;19922;-76
2023/03/08 11:19:03;;;;;;;;;;;;;;;;;;4998910;28;19927;-77
2023/03/08 11:21:50;;;;;;;;;;;;;;;;;;4994629;28;19968;-76
2023/03/08 11:24:38;;;;;;;;;;;;;;;;;;4993515;28;19917;-76
2023/03/08 11:27:25;;;;;;;;;;;;;;;;;;5000217;28;19926;-76
2023/03/08 11:30:11;;;;;;;;;;;;;;;;;;4984739;28;19918;-76
2023/03/08 11:32:58;;;;;;;;;;;;;;;;;;5006201;28;19926;-77
2023/03/08 11:35:44;;;;;;;;;;;;;;;;;;5004474;28;19933;-76
2023/03/08 11:38:31;;;;;;;;;;;;;;;;;;5000133;28;19918;-76
2023/03/08 11:41:17;;;;;;;;;;;;;;;;;;4995979;28;19932;-76
2023/03/08 11:44:04;;;;;;;;;;;;;;;;;;4998438;28;19917;-76
2023/03/08 11:46:50;;;;;;;;;;;;;;;;;;5022430;28;19924;-76
2023/03/08 11:49:37;;;;;;;;;;;;;;;;;;5019834;28;19913;-76
2023/03/08 11:52:23;;;;;;;;;;;;;;;;;;5016408;28;19925;-77
2023/03/08 11:55:10;;;;;;;;;;;;;;;;;;5015094;28;19947;-76
2023/03/08 11:57:56;;;;;;;;;;;;;;;;;;5024402;28;19925;-76
2023/03/08 12:00:43;;;;;;;;;;;;;;;;;;5012291;28;19918;-75
2023/03/08 12:03:29;;;;;;;;;;;;;;;;;;5016760;28;20341;-76
2023/03/08 12:06:16;;;;;;;;;;;;;;;;;;5013705;28;19925;-75
2023/03/08 12:09:02;;;;;;;;;;;;;;;;;;5019014;28;19918;-77
2023/03/08 12:11:49;;;;;;;;;;;;;;;;;;5014703;28;19922;-76
2023/03/08 12:14:35;;;;;;;;;;;;;;;;;;5016712;28;19935;-76
2023/03/08 12:17:22;;;;;;;;;;;;;;;;;;5013103;28;19924;-76
2023/03/08 12:20:09;;;;;;;;;;;;;;;;;;5011517;28;20907;-76
2023/03/08 12:22:55;;;;;;;;;;;;;;;;;;5006335;28;20091;-76
2023/03/08 12:25:42;;;;;;;;;;;;;;;;;;5018586;28;19913;-76
2023/03/08 12:28:28;;;;;;;;;;;;;;;;;;5018686;28;19936;-77
2023/03/08 12:31:18;;;;;;;;;;;;;;;;;;5007218;28;20392;-76
2023/03/08 12:34:05;;;;;;;;;;;;;;;;;;5014344;28;19931;-76
2023/03/08 12:36:51;;;;;;;;;;;;;;;;;;5018587;28;19947;-76
2023/03/08 12:39:38;;;;;;;;;;;;;;;;;;5014321;28;19922;-76
2023/03/08 12:42:24;;;;;;;;;;;;;;;;;;5019790;28;19924;-76
2023/03/08 12:45:12;;;;;;;;;;;;;;;;;;5010239;28;20372;-76
2023/03/08 12:47:58;;;;;;;;;;;;;;;;;;5004568;28;19918;-76
2023/03/08 12:50:45;;;;;;;;;;;;;;;;;;5011088;28;20369;-76
2023/03/08 12:53:31;;;;;;;;;;;;;;;;;;5020278;28;19925;-76
2023/03/08 12:56:18;;;;;;;;;;;;;;;;;;5014860;28;20636;-76
2023/03/08 12:59:04;;;;;;;;;;;;;;;;;;5012826;28;19940;-76
2023/03/08 13:01:51;;;;;;;;;;;;;;;;;;5020846;28;20316;-76
2023/03/08 13:04:37;;;;;;;;;;;;;;;;;;5019059;28;19924;-76
2023/03/08 13:07:24;;;;;;;;;;;;;;;;;;5015406;28;19917;-76
2023/03/08 13:10:10;;;;;;;;;;;;;;;;;;5016083;28;19928;-76
2023/03/08 13:12:57;;;;;;;;;;;;;;;;;;5020401;28;19932;-76
2023/03/08 13:15:43;;;;;;;;;;;;;;;;;;5017931;28;19925;-77
2023/03/08 13:18:29;;;;;;;;;;;;;;;;;;5011063;28;20309;-76
2023/03/08 13:21:16;;;;;;;;;;;;;;;;;;5009290;28;19918;-76
2023/03/08 13:24:03;;;;;;;;;;;;;;;;;;5015788;28;19923;-77
2023/03/08 13:26:49;;;;;;;;;;;;;;;;;;5014056;28;20402;-77
2023/03/08 13:29:35;;;;;;;;;;;;;;;;;;5021479;28;19918;-77
2023/03/08 13:32:22;;;;;;;;;;;;;;;;;;5016392;28;19921;-76
2023/03/08 13:35:09;;;;;;;;;;;;;;;;;;5012657;28;19921;-77
2023/03/08 13:37:55;;;;;;;;;;;;;;;;;;5014890;28;19923;-77
2023/03/08 13:40:42;;;;;;;;;;;;;;;;;;5025005;28;19913;-77
2023/03/08 13:43:28;;;;;;;;;;;;;;;;;;5002825;28;19925;-77
2023/03/08 13:46:15;;;;;;;;;;;;;;;;;;5018876;28;19929;-77
2023/03/08 13:49:02;;;;;;;;;;;;;;;;;;5015441;28;19922;-77
2023/03/08 13:51:48;;;;;;;;;;;;;;;;;;5013312;28;19932;-77
2023/03/08 13:54:35;;;;;;;;;;;;;;;;;;5010577;28;19933;-77
2023/03/08 13:57:21;;;;;;;;;;;;;;;;;;5015361;28;20399;-77
2023/03/08 14:00:08;;;;;;;;;;;;;;;;;;5019230;28;19936;-77
2023/03/08 14:02:56;;;;;;;;;;;;;;;;;;5014723;28;19924;-77
2023/03/08 14:05:44;;;;;;;;;;;;;;;;;;5016763;28;20046;-77
2023/03/08 14:08:30;;;;;;;;;;;;;;;;;;5025201;28;19955;-77
2023/03/08 14:11:17;;;;;;;;;;;;;;;;;;5014154;28;20001;-77
2023/03/08 14:14:05;;;;;;;;;;;;;;;;;;5014235;28;19932;-77
2023/03/08 14:16:52;;;;;;;;;;;;;;;;;;5015358;28;19921;-77
2023/03/08 14:19:39;;;;;;;;;;;;;;;;;;5017192;28;19949;-77
2023/03/08 14:22:25;;;;;;;;;;;;;;;;;;5016821;28;19931;-77
2023/03/08 14:25:12;;;;;;;;;;;;;;;;;;5016646;28;19922;-75
2023/03/08 14:27:58;;;;;;;;;;;;;;;;;;5025837;28;19919;-77
2023/03/08 14:30:45;;;;;;;;;;;;;;;;;;5010787;28;19929;-77
2023/03/08 14:33:31;;;;;;;;;;;;;;;;;;5023716;28;19917;-77
2023/03/08 14:36:18;;;;;;;;;;;;;;;;;;5017198;28;19928;-77
2023/03/08 14:39:04;;;;;;;;;;;;;;;;;;5017478;28;19936;-77
2023/03/08 14:41:51;;;;;;;;;;;;;;;;;;5014376;28;20369;-77
2023/03/08 14:44:37;;;;;;;;;;;;;;;;;;5018990;28;19917;-77
2023/03/08 14:47:24;;;;;;;;;;;;;;;;;;5009258;28;19928;-75
2023/03/08 14:50:10;;;;;;;;;;;;;;;;;;5013229;28;19925;-75
2023/03/08 14:52:56;;;;;;;;;;;;;;;;;;5019360;28;20351;-76
2023/03/08 14:55:43;;;;;;;;;;;;;;;;;;5011507;28;19929;-76
2023/03/08 14:58:29;;;;;;;;;;;;;;;;;;5016288;28;19968;-76
2023/03/08 15:01:16;;;;;;;;;;;;;;;;;;5009066;28;19923;-76
2023/03/08 15:04:02;;;;;;;;;;;;;;;;;;5017548;28;20669;-76
2023/03/08 15:06:49;;;;;;;;;;;;;;;;;;5012326;28;19921;-76
2023/03/08 15:09:35;;;;;;;;;;;;;;;;;;5016325;28;19921;-76
2023/03/08 15:12:22;;;;;;;;;;;;;;;;;;5019668;28;20399;-76
2023/03/08 15:15:08;;;;;;;;;;;;;;;;;;5016411;28;19922;-78
2023/03/08 15:17:55;;;;;;;;;;;;;;;;;;5018285;28;19917;-77
2023/03/08 15:20:43;;;;;;;;;;;;;;;;;;5021325;28;19921;-77
2023/03/08 15:23:30;;;;;;;;;;;;;;;;;;5015764;28;20308;-77
2023/03/08 15:26:17;;;;;;;;;;;;;;;;;;5011555;28;19921;-78
2023/03/08 15:29:04;;;;;;;;;;;;;;;;;;5015294;28;19952;-78
2023/03/08 15:31:50;;;;;;;;;;;;;;;;;;5013185;28;19917;-77
2023/03/08 15:34:38;;;;;;;;;;;;;;;;;;5016222;28;19925;-76
2023/03/08 15:37:24;;;;;;;;;;;;;;;;;;5011697;28;19963;-76
2023/03/08 15:40:11;;;;;;;;;;;;;;;;;;5017465;28;19921;-78
2023/03/08 15:42:57;;;;;;;;;;;;;;;;;;5016440;28;19953;-76
2023/03/08 15:45:44;;;;;;;;;;;;;;;;;;5018063;28;19929;-76
2023/03/08 15:48:30;;;;;;;;;;;;;;;;;;5015042;28;20650;-76
2023/03/08 15:51:17;;;;;;;;;;;;;;;;;;5010730;28;19921;-76
2023/03/08 15:54:04;;;;;;;;;;;;;;;;;;5013010;28;20376;-77
2023/03/08 15:56:50;;;;;;;;;;;;;;;;;;5011212;28;19943;-75
2023/03/08 15:59:37;;;;;;;;;;;;;;;;;;5015428;28;19936;-75
2023/03/08 16:02:23;;;;;;;;;;;;;;;;;;5014175;28;19928;-76
2023/03/08 16:05:10;;;;;;;;;;;;;;;;;;5015355;28;19925;-76
2023/03/08 16:07:57;;;;;;;;;;;;;;;;;;5010738;28;19960;-76
2023/03/08 16:10:44;;;;;;;;;;;;;;;;;;5013081;28;19951;-76
2023/03/08 16:13:30;;;;;;;;;;;;;;;;;;5013908;28;19921;-76
2023/03/08 16:16:17;;;;;;;;;;;;;;;;;;5010068;28;19931;-76
2023/03/08 16:19:03;;;;;;;;;;;;;;;;;;5007784;28;19925;-76
2023/03/08 16:21:50;;;;;;;;;;;;;;;;;;5012234;28;19925;-76
2023/03/08 16:24:36;;;;;;;;;;;;;;;;;;5006055;28;19925;-76
2023/03/08 16:27:23;;;;;;;;;;;;;;;;;;5016839;28;19921;-76
2023/03/08 16:30:10;;;;;;;;;;;;;;;;;;5012733;28;19926;-76
2023/03/08 16:32:56;;;;;;;;;;;;;;;;;;5016684;28;19921;-76
2023/03/08 16:35:42;;;;;;;;;;;;;;;;;;5011451;28;20392;-76
2023/03/08 16:38:29;;;;;;;;;;;;;;;;;;5013326;28;19935;-76
2023/03/08 16:41:15;;;;;;;;;;;;;;;;;;5013478;28;19928;-76
2023/03/08 16:44:02;;;;;;;;;;;;;;;;;;5012368;28;19921;-76
2023/03/08 16:46:48;;;;;;;;;;;;;;;;;;5010326;28;19924;-77
2023/03/08 16:49:35;;;;;;;;;;;;;;;;;;5015460;28;19926;-76
2023/03/08 16:52:21;;;;;;;;;;;;;;;;;;5004559;28;19992;-76
2023/03/08 16:55:08;;;;;;;;;;;;;;;;;;5012643;28;20300;-76
2023/03/08 16:57:54;;;;;;;;;;;;;;;;;;5016755;28;19929;-76
2023/03/08 17:00:41;;;;;;;;;;;;;;;;;;5009758;28;19944;-76
2023/03/08 17:03:27;;;;;;;;;;;;;;;;;;5013212;28;19925;-75
2023/03/08 17:06:14;;;;;;;;;;;;;;;;;;5015396;28;19921;-76
2023/03/08 17:09:00;;;;;;;;;;;;;;;;;;5013933;28;19956;-76
2023/03/08 17:11:47;;;;;;;;;;;;;;;;;;5016812;28;20157;-76
2023/03/08 17:14:33;;;;;;;;;;;;;;;;;;5012992;28;19925;-77
2023/03/08 17:17:20;;;;;;;;;;;;;;;;;;5008267;28;20289;-77
2023/03/08 17:20:06;;;;;;;;;;;;;;;;;;5008439;28;20008;-76
2023/03/08 17:22:53;;;;;;;;;;;;;;;;;;5016667;28;19923;-77
2023/03/08 17:25:39;;;;;;;;;;;;;;;;;;5012178;28;20381;-77
2023/03/08 17:28:26;;;;;;;;;;;;;;;;;;5008710;28;19921;-77
2023/03/08 17:31:12;;;;;;;;;;;;;;;;;;5014873;28;19935;-77
2023/03/08 17:33:58;;;;;;;;;;;;;;;;;;5016369;28;19931;-77
2023/03/08 17:36:45;;;;;;;;;;;;;;;;;;5016824;28;20289;-77
2023/03/08 17:39:31;;;;;;;;;;;;;;;;;;5015341;28;19917;-77
2023/03/08 17:42:18;;;;;;;;;;;;;;;;;;5017136;28;20530;-80
2023/03/08 17:45:05;;;;;;;;;;;;;;;;;;5018663;28;19988;-78
2023/03/08 17:47:51;;;;;;;;;;;;;;;;;;5017465;28;20372;-76
2023/03/08 17:50:38;;;;;;;;;;;;;;;;;;5019629;28;19921;-76
2023/03/08 17:53:24;;;;;;;;;;;;;;;;;;5008894;28;19964;-76
2023/03/08 17:56:12;;;;;;;;;;;;;;;;;;4991396;28;19925;-76
2023/03/08 17:58:58;;;;;;;;;;;;;;;;;;5008661;28;19929;-77
2023/03/08 18:01:45;;;;;;;;;;;;;;;;;;5013650;28;19914;-76
2023/03/08 18:04:31;;;;;;;;;;;;;;;;;;5006085;28;20387;-77
2023/03/08 18:07:19;;;;;;;;;;;;;;;;;;5012031;28;19932;-77
2023/03/08 18:10:06;;;;;;;;;;;;;;;;;;5009271;28;19919;-78
2023/03/08 18:12:52;;;;;;;;;;;;;;;;;;5016453;28;20269;-76
2023/03/08 18:15:39;;;;;;;;;;;;;;;;;;5009199;28;20649;-77
2023/03/08 18:18:26;;;;;;;;;;;;;;;;;;5010388;28;20905;-77
2023/03/08 18:21:12;;;;;;;;;;;;;;;;;;5007761;28;19928;-77
2023/03/08 18:23:59;;;;;;;;;;;;;;;;;;5011748;28;19921;-77
2023/03/08 18:26:45;;;;;;;;;;;;;;;;;;5009515;28;19948;-78
2023/03/08 18:29:32;;;;;;;;;;;;;;;;;;5019683;28;19917;-77
2023/03/08 18:32:18;;;;;;;;;;;;;;;;;;5013079;28;19940;-78
2023/03/08 18:35:05;;;;;;;;;;;;;;;;;;5003985;28;19926;-77
2023/03/08 18:37:51;;;;;;;;;;;;;;;;;;5010873;28;20274;-78
2023/03/08 18:40:38;;;;;;;;;;;;;;;;;;5006432;28;19929;-78
2023/03/08 18:43:24;;;;;;;;;;;;;;;;;;5006950;28;20293;-78
2023/03/08 18:46:11;;;;;;;;;;;;;;;;;;5012779;28;19921;-78
2023/03/08 18:48:57;;;;;;;;;;;;;;;;;;5018771;28;19929;-77
2023/03/08 18:51:44;;;;;;;;;;;;;;;;;;5017647;28;20017;-77
2023/03/08 18:54:30;;;;;;;;;;;;;;;;;;5009020;28;19932;-77
2023/03/08 18:57:17;;;;;;;;;;;;;;;;;;5014370;28;19917;-78